createdAt,value
2018-05-25T00:01:57.897Z,24.13
2018-05-25T00:04:24.937Z,24.47
2018-05-25T00:06:52.003Z,24.90
2018-05-25T00:09:18.294Z,23.03
2018-05-25T00:11:44.558Z,25.23
2018-05-25T00:14:10.803Z,25.00
2018-05-25T00:16:37.039Z,23.83
2018-05-25T00:19:03.272Z,22.63
2018-05-25T00:21:29.501Z,25.37
2018-05-25T00:23:55.787Z,25.97
2018-05-25T00:26:22.773Z,25.67
2018-05-25T00:28:48.987Z,23.40
2018-05-25T00:31:15.224Z,26.00
2018-05-25T00:33:41.433Z,25.13
2018-05-25T00:36:07.647Z,24.90
2018-05-25T00:38:34.593Z,24.33
2018-05-25T00:41:01.562Z,24.27
2018-05-25T00:43:27.771Z,23.60
2018-05-25T00:45:54.082Z,26.63
2018-05-25T00:48:21.055Z,25.70
2018-05-25T00:50:47.290Z,22.90
2018-05-25T00:53:13.518Z,24.67
2018-05-25T00:55:39.774Z,23.03
2018-05-25T00:58:06.015Z,21.03
2018-05-25T01:00:32.284Z,23.13
2018-05-25T01:02:58.510Z,25.83
2018-05-25T01:05:24.713Z,23.93
2018-05-25T01:07:50.955Z,22.73
2018-05-25T01:10:17.925Z,24.00
2018-05-25T01:12:44.137Z,26.33
2018-05-25T01:15:10.361Z,23.77
2018-05-25T01:17:51.450Z,24.53
2018-05-25T01:20:17.798Z,23.67
2018-05-25T01:22:44.009Z,25.57
2018-05-25T01:25:10.230Z,24.53
2018-05-25T01:27:36.452Z,24.43
2018-05-25T01:30:02.689Z,24.07
2018-05-25T01:32:28.933Z,26.20
2018-05-25T01:34:55.145Z,24.47
2018-05-25T01:37:21.361Z,23.93
2018-05-25T01:39:47.597Z,24.50
2018-05-25T01:42:13.830Z,26.53
2018-05-25T01:44:40.050Z,24.90
2018-05-25T01:47:06.262Z,25.47
2018-05-25T01:49:33.296Z,25.83
2018-05-25T01:51:59.531Z,27.40
2018-05-25T01:54:26.505Z,25.90
2018-05-25T01:56:52.835Z,25.30
2018-05-25T01:59:19.054Z,26.17
2018-05-25T02:01:45.273Z,27.63
2018-05-25T02:04:11.492Z,28.23
2018-05-25T02:06:38.478Z,27.57
2018-05-25T02:09:04.746Z,27.07
2018-05-25T02:11:30.949Z,26.63
2018-05-25T02:13:57.957Z,27.47
2018-05-25T02:16:24.176Z,27.63
2018-05-25T02:18:50.406Z,24.67
2018-05-25T02:21:16.627Z,27.10
2018-05-25T02:23:42.977Z,26.83
2018-05-25T02:26:09.193Z,25.90
2018-05-25T02:28:35.392Z,26.97
2018-05-25T02:31:01.598Z,27.33
2018-05-25T02:33:27.818Z,29.43
2018-05-25T02:35:54.036Z,27.07
2018-05-25T02:38:20.258Z,26.50
2018-05-25T02:40:46.459Z,29.13
2018-05-25T02:43:12.644Z,28.23
2018-05-25T02:45:38.863Z,28.43
2018-05-25T02:48:05.095Z,28.57
2018-05-25T02:50:31.367Z,27.87
2018-05-25T02:52:57.582Z,28.70
2018-05-25T02:55:24.538Z,28.53
2018-05-25T02:57:50.762Z,27.17
2018-05-25T03:00:17.013Z,28.33
2018-05-25T03:02:43.214Z,29.17
2018-05-25T03:05:10.199Z,31.77
2018-05-25T03:07:36.430Z,30.47
2018-05-25T03:10:02.658Z,30.50
2018-05-25T03:12:28.849Z,31.20
2018-05-25T03:14:55.089Z,30.60
2018-05-25T03:17:21.314Z,35.30
2018-05-25T03:19:47.543Z,32.03
2018-05-25T03:22:13.726Z,31.00
2018-05-25T03:24:39.960Z,34.57
2018-05-25T03:27:06.949Z,35.27
2018-05-25T03:29:33.174Z,34.47
2018-05-25T03:31:59.364Z,34.50
2018-05-25T03:34:26.315Z,33.47
2018-05-25T03:36:53.269Z,31.87
2018-05-25T03:39:20.197Z,32.20
2018-05-25T03:41:47.167Z,37.73
2018-05-25T03:44:13.402Z,35.73
2018-05-25T03:46:39.634Z,36.00
2018-05-25T03:49:05.847Z,34.73
2018-05-25T03:51:32.095Z,35.43
2018-05-25T03:53:58.305Z,38.90
2018-05-25T03:56:24.532Z,37.00
2018-05-25T03:59:03.060Z,37.40
2018-05-25T04:01:45.226Z,36.10
2018-05-25T04:04:13.098Z,35.07
2018-05-25T04:06:40.068Z,34.90
2018-05-25T04:09:06.283Z,37.13
2018-05-25T04:11:32.484Z,35.23
2018-05-25T04:13:58.718Z,34.03
2018-05-25T04:16:25.665Z,35.63
2018-05-25T04:18:52.610Z,36.63
2018-05-25T04:21:19.542Z,35.03
2018-05-25T04:23:45.764Z,35.03
2018-05-25T04:26:13.633Z,33.47
2018-05-25T04:28:40.567Z,33.20
2018-05-25T04:31:06.781Z,37.97
2018-05-25T04:33:33.016Z,35.83
2018-05-25T04:35:59.303Z,34.90
2018-05-25T04:38:25.517Z,34.57
2018-05-25T04:40:51.766Z,34.70
2018-05-25T04:43:17.998Z,35.80
2018-05-25T04:45:44.286Z,35.43
2018-05-25T04:48:11.269Z,37.90
2018-05-25T04:50:38.218Z,34.57
2018-05-25T04:53:04.463Z,42.00
2018-05-25T04:55:30.676Z,35.57
2018-05-25T04:57:56.936Z,39.00
2018-05-25T05:00:23.145Z,34.47
2018-05-25T05:02:49.346Z,30.90
2018-05-25T05:05:15.588Z,36.90
2018-05-25T05:07:41.890Z,39.33
2018-05-25T05:10:08.107Z,38.03
2018-05-25T05:12:35.064Z,38.00
2018-05-25T05:15:01.306Z,34.87
2018-05-25T05:17:27.516Z,35.07
2018-05-25T05:19:53.759Z,32.10
2018-05-25T05:22:20.075Z,32.80
2018-05-25T05:24:46.275Z,31.87
2018-05-25T05:27:13.230Z,29.27
2018-05-25T05:29:40.183Z,29.33
2018-05-25T05:32:07.178Z,30.37
2018-05-25T05:34:33.418Z,31.20
2018-05-25T05:36:59.618Z,31.10
2018-05-25T05:39:25.829Z,29.20
2018-05-25T05:41:52.058Z,29.93
2018-05-25T05:44:18.296Z,26.97
2018-05-25T05:46:44.525Z,28.33
2018-05-25T05:49:10.745Z,26.53
2018-05-25T05:51:36.950Z,27.23
2018-05-25T05:54:03.177Z,26.63
2018-05-25T05:56:30.125Z,24.23
2018-05-25T05:58:56.463Z,23.03
2018-05-25T06:01:22.739Z,23.13
2018-05-25T06:03:48.966Z,23.30
2018-05-25T06:06:15.212Z,23.27
2018-05-25T06:08:41.446Z,21.57
2018-05-25T06:11:08.391Z,21.33
2018-05-25T06:13:35.357Z,20.00
2018-05-25T06:16:01.621Z,18.77
2018-05-25T06:18:27.858Z,18.00
2018-05-25T06:20:54.090Z,20.50
2018-05-25T06:23:20.369Z,19.80
2018-05-25T06:25:47.359Z,18.23
2018-05-25T06:28:13.549Z,19.57
2018-05-25T06:30:39.790Z,20.20
2018-05-25T06:33:06.773Z,18.90
2018-05-25T06:35:32.974Z,22.23
2018-05-25T06:37:59.222Z,20.37
2018-05-25T06:40:25.471Z,18.73
2018-05-25T06:42:51.677Z,18.67
2018-05-25T06:45:17.911Z,19.37
2018-05-25T06:47:44.114Z,18.83
2018-05-25T06:50:10.372Z,19.47
2018-05-25T06:52:36.618Z,18.30
2018-05-25T06:55:03.606Z,19.17
2018-05-25T06:57:29.835Z,20.50
2018-05-25T06:59:56.066Z,19.27
2018-05-25T07:02:22.293Z,19.37
2018-05-25T07:04:48.530Z,18.27
2018-05-25T07:07:14.754Z,18.80
2018-05-25T07:12:13.963Z,18.17
2018-05-25T07:14:40.180Z,18.30
2018-05-25T07:17:06.433Z,17.80
2018-05-25T07:19:32.697Z,17.53
2018-05-25T07:21:59.668Z,18.00
2018-05-25T07:24:25.896Z,17.27
2018-05-25T07:26:52.176Z,17.93
2018-05-25T07:29:18.602Z,16.67
2018-05-25T07:31:44.830Z,15.13
2018-05-25T07:34:11.051Z,14.30
2018-05-25T07:36:37.278Z,14.27
2018-05-25T07:39:03.578Z,14.43
2018-05-25T07:41:29.902Z,13.40
2018-05-25T07:43:56.193Z,13.57
2018-05-25T07:46:22.421Z,12.07
2018-05-25T07:48:48.659Z,12.37
2018-05-25T07:51:15.689Z,11.90
2018-05-25T07:53:41.901Z,11.60
2018-05-25T07:56:08.170Z,12.55
2018-05-25T07:58:35.130Z,11.52
2018-05-25T08:01:01.368Z,12.27
2018-05-25T08:03:27.634Z,12.60
2018-05-25T08:05:53.904Z,13.15
2018-05-25T08:08:20.835Z,13.23
2018-05-25T08:10:47.826Z,14.68
2018-05-25T08:13:14.045Z,12.57
2018-05-25T08:15:40.283Z,13.95
2018-05-25T08:18:06.506Z,11.65
2018-05-25T08:20:32.711Z,12.45
2018-05-25T08:22:58.966Z,12.40
2018-05-25T08:25:25.950Z,13.27
2018-05-25T08:27:52.194Z,12.07
2018-05-25T08:30:19.202Z,11.93
2018-05-25T08:32:45.451Z,12.05
2018-05-25T08:35:11.657Z,13.65
2018-05-25T08:37:37.944Z,12.02
2018-05-25T08:40:04.874Z,10.95
2018-05-25T08:42:31.857Z,13.25
2018-05-25T08:44:58.092Z,11.12
2018-05-25T08:47:24.324Z,11.98
2018-05-25T08:49:50.570Z,11.55
2018-05-25T08:52:16.817Z,12.40
2018-05-25T08:54:43.800Z,11.90
2018-05-25T08:57:10.017Z,12.18
2018-05-25T08:59:36.318Z,12.52
2018-05-25T09:02:03.325Z,12.15
2018-05-25T09:04:29.525Z,11.25
2018-05-25T09:06:55.774Z,10.73
2018-05-25T09:09:28.856Z,10.20
2018-05-25T09:11:55.090Z,10.50
2018-05-25T09:14:21.310Z,13.20
2018-05-25T09:16:47.535Z,11.43
2018-05-25T09:19:13.765Z,10.27
2018-05-25T09:21:40.200Z,11.85
2018-05-25T09:24:06.362Z,11.82
2018-05-25T09:26:32.578Z,11.98
2018-05-25T09:28:58.818Z,12.10
2018-05-25T09:31:25.037Z,12.50
2018-05-25T09:33:51.328Z,9.20
2018-05-25T09:36:17.589Z,11.93
2018-05-25T09:38:43.818Z,9.82
2018-05-25T09:41:10.021Z,9.85
2018-05-25T09:43:36.254Z,8.52
2018-05-25T09:46:02.543Z,8.68
2018-05-25T09:48:29.490Z,9.25
2018-05-25T09:50:55.756Z,8.57
2018-05-25T09:53:22.018Z,8.13
2018-05-25T09:55:48.250Z,8.23
2018-05-25T09:58:14.478Z,9.30
2018-05-25T10:00:41.482Z,9.55
2018-05-25T10:03:07.753Z,9.43
2018-05-25T10:05:33.973Z,9.95
2018-05-25T10:08:00.230Z,8.77
2018-05-25T10:10:27.214Z,10.55
2018-05-25T10:12:53.522Z,9.15
2018-05-25T10:15:19.765Z,10.30
2018-05-25T10:17:46.032Z,9.70
2018-05-25T10:20:12.994Z,9.40
2018-05-25T10:22:39.299Z,9.35
2018-05-25T10:25:05.643Z,8.95
2018-05-25T10:27:31.874Z,9.98
2018-05-25T10:29:58.209Z,9.10
2018-05-25T10:32:25.182Z,9.18
2018-05-25T10:34:51.415Z,8.82
2018-05-25T10:37:17.671Z,8.00
2018-05-25T10:39:43.932Z,7.55
2018-05-25T10:42:10.164Z,7.55
2018-05-25T10:44:37.134Z,7.10
2018-05-25T10:47:03.512Z,6.97
2018-05-25T10:49:29.737Z,7.07
2018-05-25T10:51:55.949Z,7.70
2018-05-25T10:54:22.191Z,7.30
2018-05-25T10:56:48.477Z,6.87
2018-05-25T10:59:14.687Z,7.78
2018-05-25T11:01:41.663Z,8.35
2018-05-25T11:04:07.885Z,9.82
2018-05-25T11:06:34.091Z,10.07
2018-05-25T11:09:01.059Z,10.73
2018-05-25T11:11:27.314Z,9.93
2018-05-25T11:13:53.562Z,9.25
2018-05-25T11:16:19.784Z,9.75
2018-05-25T11:18:45.981Z,9.05
2018-05-25T11:21:12.266Z,9.45
2018-05-25T11:23:39.264Z,9.88
2018-05-25T11:26:05.649Z,9.90
2018-05-25T11:28:32.625Z,9.57
2018-05-25T11:30:58.870Z,9.15
2018-05-25T11:33:25.185Z,11.27
2018-05-25T11:35:51.429Z,10.30
2018-05-25T11:38:17.679Z,8.90
2018-05-25T11:40:43.920Z,8.25
2018-05-25T11:43:10.208Z,8.00
2018-05-25T11:45:36.468Z,7.00
2018-05-25T11:48:02.710Z,7.12
2018-05-25T11:50:29.038Z,8.77
2018-05-25T11:52:55.332Z,9.20
2018-05-25T11:55:21.630Z,7.78
2018-05-25T11:57:47.859Z,7.72
2018-05-25T12:00:14.133Z,9.30
2018-05-25T12:02:40.386Z,8.10
2018-05-25T12:05:07.380Z,8.95
2018-05-25T12:07:33.625Z,10.15
2018-05-25T12:09:59.847Z,9.30
2018-05-25T12:12:26.086Z,8.73
2018-05-25T12:14:52.384Z,16.05
2018-05-25T12:17:18.650Z,9.70
2018-05-25T12:19:44.862Z,8.95
2018-05-25T12:22:11.164Z,9.68
2018-05-25T12:24:37.409Z,8.88
2018-05-25T12:27:03.629Z,8.40
2018-05-25T12:29:29.843Z,8.83
2018-05-25T12:31:56.116Z,8.75
2018-05-25T12:34:22.365Z,8.38
2018-05-25T12:36:49.306Z,8.10
2018-05-25T12:39:15.641Z,8.50
2018-05-25T12:41:41.890Z,9.03
2018-05-25T12:44:08.854Z,8.83
2018-05-25T12:46:35.091Z,9.13
2018-05-25T12:49:01.314Z,10.80
2018-05-25T12:51:28.543Z,9.40
2018-05-25T12:53:54.860Z,8.80
2018-05-25T12:56:21.798Z,8.57
2018-05-25T12:58:48.762Z,9.30
2018-05-25T13:01:15.013Z,7.82
2018-05-25T13:03:41.256Z,9.98
2018-05-25T13:06:07.467Z,9.05
2018-05-25T13:08:33.733Z,9.30
2018-05-25T13:11:00.086Z,9.98
2018-05-25T13:13:27.079Z,10.30
2018-05-25T13:15:53.347Z,9.40
2018-05-25T13:18:19.600Z,9.00
2018-05-25T13:20:46.559Z,9.23
2018-05-25T13:23:12.778Z,8.10
2018-05-25T13:25:39.013Z,8.73
2018-05-25T13:28:05.350Z,8.63
2018-05-25T13:30:31.623Z,10.33
2018-05-25T13:32:57.846Z,9.80
2018-05-25T13:35:24.078Z,8.03
2018-05-25T13:37:50.339Z,9.13
2018-05-25T13:40:17.425Z,8.83
2018-05-25T13:42:43.670Z,9.03
2018-05-25T13:45:09.894Z,9.50
2018-05-25T13:47:36.155Z,7.87
2018-05-25T13:50:03.234Z,8.77
2018-05-25T13:52:29.474Z,6.97
2018-05-25T13:54:55.728Z,7.20
2018-05-25T13:57:21.955Z,7.00
2018-05-25T13:59:48.178Z,6.93
2018-05-25T14:02:14.472Z,7.10
2018-05-25T14:04:40.750Z,6.67
2018-05-25T14:07:07.025Z,7.60
2018-05-25T14:09:33.243Z,6.97
2018-05-25T14:12:00.220Z,6.65
2018-05-25T14:14:26.482Z,7.03
2018-05-25T14:16:52.722Z,6.43
2018-05-25T14:19:18.953Z,7.03
2018-05-25T14:21:45.171Z,6.07
2018-05-25T14:24:11.444Z,6.00
2018-05-25T14:26:37.667Z,7.15
2018-05-25T14:29:03.975Z,7.60
2018-05-25T14:31:30.962Z,8.63
2018-05-25T14:33:57.929Z,7.75
2018-05-25T14:36:24.154Z,8.13
2018-05-25T14:38:50.397Z,8.70
2018-05-25T14:41:16.682Z,8.93
2018-05-25T14:43:43.609Z,7.27
2018-05-25T14:46:09.868Z,7.80
2018-05-25T14:48:36.072Z,8.80
2018-05-25T14:51:02.349Z,8.80
2018-05-25T14:53:28.583Z,8.37
2018-05-25T14:55:54.850Z,8.13
2018-05-25T14:58:21.119Z,7.73
2018-05-25T15:00:47.358Z,7.03
2018-05-25T15:03:13.578Z,8.27
2018-05-25T15:05:39.807Z,7.90
2018-05-25T15:08:06.058Z,7.90
2018-05-25T15:10:32.295Z,7.27
2018-05-25T15:12:58.548Z,5.97
2018-05-25T15:15:24.823Z,7.73
2018-05-25T15:17:51.033Z,7.63
2018-05-25T15:20:17.270Z,7.07
2018-05-25T15:22:43.498Z,7.57
2018-05-25T15:25:09.783Z,6.93
2018-05-25T15:27:36.027Z,6.03
2018-05-25T15:30:02.285Z,7.63
2018-05-25T15:32:28.573Z,7.67
2018-05-25T15:34:54.830Z,7.27
2018-05-25T15:37:21.040Z,7.83
2018-05-25T15:39:47.310Z,7.77
2018-05-25T15:42:14.405Z,8.07
2018-05-25T15:44:47.348Z,8.40
2018-05-25T15:47:14.513Z,8.27
2018-05-25T15:49:40.774Z,9.00
2018-05-25T15:52:07.023Z,8.07
2018-05-25T15:54:34.807Z,7.73
2018-05-25T15:57:01.042Z,8.07
2018-05-25T15:59:27.331Z,7.53
2018-05-25T16:01:54.464Z,10.10
2018-05-25T16:04:21.088Z,8.53
2018-05-25T16:06:48.066Z,7.67
2018-05-25T16:09:14.286Z,8.07
2018-05-25T16:11:40.525Z,8.23
2018-05-25T16:14:06.946Z,8.63
2018-05-25T16:16:33.186Z,7.87
2018-05-25T16:18:59.431Z,8.20
2018-05-25T16:21:25.645Z,7.93
2018-05-25T16:23:52.065Z,8.20
2018-05-25T16:26:18.305Z,8.57
2018-05-25T16:28:44.701Z,7.97
2018-05-25T16:31:11.018Z,7.30
2018-05-25T16:33:38.013Z,7.83
2018-05-25T16:36:04.238Z,7.70
2018-05-25T16:38:30.476Z,7.97
2018-05-25T16:40:56.681Z,7.67
2018-05-25T16:43:23.012Z,7.07
2018-05-25T16:45:49.390Z,7.50
2018-05-25T16:48:15.683Z,7.13
2018-05-25T16:50:41.916Z,7.70
2018-05-25T16:53:08.160Z,6.70
2018-05-25T16:55:39.940Z,6.93
2018-05-25T16:58:06.179Z,7.07
2018-05-25T17:00:33.166Z,6.40
2018-05-25T17:02:59.375Z,6.10
2018-05-25T17:05:25.583Z,6.87
2018-05-25T17:07:52.564Z,6.70
2018-05-25T17:10:18.803Z,7.93
2018-05-25T17:12:45.077Z,7.33
2018-05-25T17:15:11.251Z,6.90
2018-05-25T17:17:37.478Z,6.67
2018-05-25T17:20:03.715Z,7.10
2018-05-25T17:22:29.951Z,6.80
2018-05-25T17:24:56.191Z,6.70
2018-05-25T17:27:22.428Z,7.30
2018-05-25T17:29:48.697Z,7.10
2018-05-25T17:32:15.049Z,6.77
2018-05-25T17:34:41.366Z,7.93
2018-05-25T17:37:07.580Z,6.40
2018-05-25T17:39:34.622Z,7.30
2018-05-25T17:42:00.959Z,6.20
2018-05-25T17:44:27.417Z,7.33
2018-05-25T17:46:53.812Z,7.20
2018-05-25T17:49:20.873Z,6.90
2018-05-25T17:51:47.901Z,6.77
2018-05-25T17:54:14.183Z,7.17
2018-05-25T17:56:40.415Z,6.93
2018-05-25T17:59:06.690Z,7.37
2018-05-25T18:01:33.669Z,7.83
2018-05-25T18:03:59.934Z,6.87
2018-05-25T18:06:26.228Z,7.10
2018-05-25T18:08:52.474Z,6.87
2018-05-25T18:11:18.862Z,6.97
2018-05-25T18:13:45.102Z,6.97
2018-05-25T18:16:11.345Z,7.03
2018-05-25T18:18:37.601Z,6.83
2018-05-25T18:21:03.873Z,6.50
2018-05-25T18:23:30.115Z,6.23
2018-05-25T18:25:56.358Z,6.30
2018-05-25T18:28:22.608Z,6.30
2018-05-25T18:30:48.873Z,5.87
2018-05-25T18:33:15.845Z,5.87
2018-05-25T18:35:42.071Z,6.00
2018-05-25T18:38:08.317Z,5.60
2018-05-25T18:40:34.525Z,5.33
2018-05-25T18:43:00.763Z,6.17
2018-05-25T18:45:27.025Z,5.50
2018-05-25T18:47:54.007Z,5.40
2018-05-25T18:50:20.986Z,6.20
2018-05-25T18:52:47.206Z,5.90
2018-05-25T18:55:13.440Z,6.07
2018-05-25T18:57:39.781Z,5.80
2018-05-25T19:00:06.070Z,5.63
2018-05-25T19:02:33.053Z,6.57
2018-05-25T19:04:59.293Z,5.70
2018-05-25T19:07:25.510Z,6.20
2018-05-25T19:09:51.744Z,5.77
2018-05-25T19:12:18.007Z,5.50
2018-05-25T19:14:44.217Z,5.30
2018-05-25T19:17:10.458Z,6.07
2018-05-25T19:19:36.711Z,5.97
2018-05-25T19:22:03.678Z,5.70
2018-05-25T19:24:29.985Z,5.07
2018-05-25T19:26:57.081Z,5.90
2018-05-25T19:29:23.292Z,5.83
2018-05-25T19:31:49.544Z,6.20
2018-05-25T19:34:15.769Z,6.33
2018-05-25T19:36:42.047Z,6.30
2018-05-25T19:39:08.267Z,5.77
2018-05-25T19:41:35.260Z,6.80
2018-05-25T19:44:01.484Z,6.60
2018-05-25T19:46:27.722Z,5.93
2018-05-25T19:48:53.950Z,6.00
2018-05-25T19:51:20.289Z,7.00
2018-05-25T19:53:46.536Z,6.97
2018-05-25T19:56:12.762Z,5.83
2018-05-25T19:58:39.075Z,6.63
2018-05-25T20:01:05.307Z,5.70
2018-05-25T20:03:31.546Z,6.90
2018-05-25T20:05:58.536Z,6.50
2018-05-25T20:08:24.766Z,6.80
2018-05-25T20:10:51.044Z,6.73
2018-05-25T20:13:17.317Z,6.23
2018-05-25T20:15:44.349Z,6.63
2018-05-25T20:18:11.333Z,6.40
2018-05-25T20:20:37.550Z,6.40
2018-05-25T20:23:03.917Z,6.20
2018-05-25T20:25:30.212Z,6.37
2018-05-25T20:27:56.516Z,7.20
2018-05-25T20:30:22.763Z,6.53
2018-05-25T20:32:49.050Z,6.63
2018-05-25T20:35:15.471Z,7.40
2018-05-25T20:37:41.824Z,7.03
2018-05-25T20:40:08.838Z,6.70
2018-05-25T20:42:35.109Z,7.37
2018-05-25T20:45:01.374Z,6.77
2018-05-25T20:47:27.627Z,7.17
2018-05-25T20:49:53.876Z,7.17
2018-05-25T20:52:20.906Z,7.47
2018-05-25T20:54:47.913Z,7.73
2018-05-25T20:57:14.598Z,8.00
2018-05-25T20:59:40.830Z,7.53
2018-05-25T21:02:07.864Z,8.30
2018-05-25T21:04:34.070Z,8.80
2018-05-25T21:07:00.321Z,8.70
2018-05-25T21:09:27.260Z,8.30
2018-05-25T21:11:54.369Z,8.97
2018-05-25T21:14:20.631Z,8.57
2018-05-25T21:16:46.825Z,8.30
2018-05-25T21:19:13.070Z,8.50
2018-05-25T21:21:39.324Z,8.83
2018-05-25T21:24:05.630Z,9.17
2018-05-25T21:26:31.874Z,9.33
2018-05-25T21:28:58.209Z,9.03
2018-05-25T21:31:24.537Z,9.03
2018-05-25T21:33:50.800Z,9.53
2018-05-25T21:36:17.108Z,9.73
2018-05-25T21:38:43.307Z,8.90
2018-05-25T21:41:09.522Z,9.23
2018-05-25T21:43:35.763Z,9.33
2018-05-25T21:46:01.964Z,9.60
2018-05-25T21:48:28.187Z,9.30
2018-05-25T21:50:54.427Z,10.27
2018-05-25T21:53:20.654Z,9.93
2018-05-25T21:55:48.105Z,10.70
2018-05-25T21:58:14.332Z,10.43
2018-05-25T22:00:40.595Z,9.83
2018-05-25T22:03:06.822Z,11.37
2018-05-25T22:05:33.116Z,10.10
2018-05-25T22:07:59.391Z,10.37
2018-05-25T22:10:25.622Z,10.37
2018-05-25T22:12:51.940Z,10.80
2018-05-25T22:15:18.149Z,11.47
2018-05-25T22:17:44.419Z,10.83
2018-05-25T22:20:11.395Z,10.20
2018-05-25T22:22:37.622Z,10.60
2018-05-25T22:25:03.903Z,11.80
2018-05-25T22:27:30.133Z,11.27
2018-05-25T22:29:56.402Z,11.20
2018-05-25T22:32:22.628Z,12.00
2018-05-25T22:34:48.873Z,10.43
2018-05-25T22:37:15.064Z,10.93
2018-05-25T22:39:43.250Z,11.50
2018-05-25T22:42:09.239Z,11.60
2018-05-25T22:44:47.719Z,12.03
2018-05-25T22:47:26.183Z,11.97
2018-05-25T22:50:05.534Z,11.97
2018-05-25T22:52:37.763Z,13.77
2018-05-25T22:55:11.433Z,13.10
2018-05-25T22:57:37.778Z,12.97
2018-05-25T23:00:04.021Z,13.87
2018-05-25T23:02:30.267Z,11.87
2018-05-25T23:04:56.464Z,13.00
2018-05-25T23:07:22.704Z,12.53
2018-05-25T23:09:48.953Z,13.17
2018-05-25T23:12:15.901Z,12.43
2018-05-25T23:14:42.857Z,11.90
2018-05-25T23:17:09.829Z,12.67
2018-05-25T23:19:36.028Z,14.40
2018-05-25T23:22:02.990Z,12.80
2018-05-25T23:24:29.198Z,13.30
2018-05-25T23:26:56.224Z,12.83
2018-05-25T23:29:22.438Z,12.93
2018-05-25T23:31:48.695Z,12.83
2018-05-25T23:34:15.661Z,12.87
2018-05-25T23:36:41.853Z,12.53
2018-05-25T23:39:08.246Z,13.43
2018-05-25T23:41:34.448Z,12.77
2018-05-25T23:44:00.676Z,13.90
2018-05-25T23:46:26.893Z,15.10
2018-05-25T23:48:53.119Z,15.83
2018-05-25T23:51:20.082Z,14.07
2018-05-25T23:53:46.298Z,14.13
2018-05-25T23:56:12.489Z,13.63
2018-05-25T23:58:38.731Z,13.70
